createdAt,value
2016-04-14T00:00:29.873Z,10.42
2016-04-14T00:01:29.908Z,10.38
2016-04-14T00:02:29.957Z,10.37
2016-04-14T00:03:29.975Z,10.3
2016-04-14T00:04:30.008Z,10.33
2016-04-14T00:05:30.058Z,10.37
2016-04-14T00:06:30.093Z,10.3
2016-04-14T00:07:30.127Z,10.41
2016-04-14T00:08:29.863Z,10.38
2016-04-14T00:09:30.192Z,10.37
2016-04-14T00:10:30.258Z,10.31
2016-04-14T00:11:30.276Z,10.26
2016-04-14T00:12:30.294Z,10.38
2016-04-14T00:13:30.328Z,10.37
2016-04-14T00:14:30.377Z,10.4
2016-04-14T00:15:30.412Z,10.31
2016-04-14T00:16:30.430Z,10.34
2016-04-14T00:17:30.479Z,10.41
2016-04-14T00:18:30.513Z,10.42
2016-04-14T00:19:30.423Z,10.42
2016-04-14T00:20:30.582Z,10.37
2016-04-14T00:21:30.615Z,10.44
2016-04-14T00:22:30.634Z,10.37
2016-04-14T00:23:30.684Z,10.35
2016-04-14T00:24:30.717Z,10.41
2016-04-14T00:25:30.907Z,10.34
2016-04-14T00:26:30.784Z,10.38
2016-04-14T00:27:30.820Z,10.41
2016-04-14T00:28:31.025Z,10.19
2016-04-14T00:29:30.902Z,10.28
2016-04-14T00:30:30.921Z,10.25
2016-04-14T00:31:30.970Z,10.23
2016-04-14T00:32:31.003Z,10.35
2016-04-14T00:33:31.039Z,10.33
2016-04-14T00:34:31.072Z,10.34
2016-04-14T00:35:31.106Z,10.34
2016-04-14T00:36:31.222Z,10.34
2016-04-14T00:37:31.024Z,10.42
2016-04-14T00:38:31.230Z,10.38
2016-04-14T00:39:31.233Z,10.33
2016-04-14T00:40:31.282Z,10.31
2016-04-14T00:41:31.316Z,10.33
2016-04-14T00:42:31.351Z,10.31
2016-04-14T00:43:31.384Z,10.25
2016-04-14T00:44:31.434Z,10.33
2016-04-14T00:45:31.468Z,10.3
2016-04-14T00:46:31.502Z,10.2
2016-04-14T00:47:31.521Z,10.16
2016-04-14T00:48:31.554Z,10.22
2016-04-14T00:49:31.604Z,10.17
2016-04-14T00:50:31.638Z,10.37
2016-04-14T00:51:31.672Z,10.25
2016-04-14T00:52:31.689Z,10.19
2016-04-14T00:53:31.740Z,10.28
2016-04-14T00:54:31.789Z,10.25
2016-04-14T00:55:31.808Z,10.25
2016-04-14T00:56:31.841Z,10.17
2016-04-14T00:57:31.875Z,10.09
2016-04-14T00:58:31.909Z,10.07
2016-04-14T00:59:31.943Z,10.09
2016-04-14T01:00:31.821Z,10.07
2016-04-14T01:01:32.027Z,10.09
2016-04-14T01:02:32.044Z,10.02
2016-04-14T01:03:32.079Z,10.02
2016-04-14T01:04:32.238Z,10.15
2016-04-14T01:05:32.162Z,10.04
2016-04-14T01:06:32.181Z,10.05
2016-04-14T01:07:32.215Z,10.07
2016-04-14T01:08:32.264Z,9.91
2016-04-14T01:09:32.298Z,9.83
2016-04-14T01:10:32.332Z,9.89
2016-04-14T01:11:32.366Z,9.92
2016-04-14T01:12:32.399Z,9.84
2016-04-14T01:13:32.434Z,9.95
2016-04-14T01:14:32.484Z,9.84
2016-04-14T01:15:32.517Z,9.83
2016-04-14T01:16:32.535Z,9.74
2016-04-14T01:17:32.585Z,9.77
2016-04-14T01:18:32.613Z,9.79
2016-04-14T01:19:32.631Z,9.74
2016-04-14T01:20:32.681Z,9.62
2016-04-14T01:21:32.731Z,9.74
2016-04-14T01:22:32.749Z,9.74
2016-04-14T01:23:32.783Z,9.79
2016-04-14T01:24:32.833Z,9.72
2016-04-14T01:25:32.850Z,9.61
2016-04-14T01:26:32.885Z,9.64
2016-04-14T01:27:32.919Z,9.62
2016-04-14T01:28:32.765Z,9.62
2016-04-14T01:29:32.986Z,9.55
2016-04-14T01:30:33.036Z,9.61
2016-04-14T01:31:33.054Z,9.5
2016-04-14T01:32:33.855Z,9.5
2016-04-14T01:33:33.138Z,9.47
2016-04-14T01:34:33.172Z,9.39
2016-04-14T01:35:33.190Z,9.46
2016-04-14T01:36:33.084Z,9.48
2016-04-14T01:37:33.274Z,9.5
2016-04-14T01:38:33.307Z,9.51
2016-04-14T01:39:33.342Z,9.51
2016-04-14T01:40:33.438Z,9.5
2016-04-14T01:41:33.409Z,9.47
2016-04-14T01:42:33.459Z,9.54
2016-04-14T01:43:33.478Z,9.51
2016-04-14T01:44:33.512Z,9.54
2016-04-14T01:45:33.545Z,9.54
2016-04-14T01:46:33.595Z,9.55
2016-04-14T01:47:33.613Z,9.61
2016-04-14T01:48:33.647Z,9.59
2016-04-14T01:49:33.697Z,9.66
2016-04-14T01:50:33.715Z,9.44
2016-04-14T01:51:33.749Z,9.36
2016-04-14T01:52:33.783Z,9.46
2016-04-14T01:53:33.817Z,9.4
2016-04-14T01:54:33.866Z,9.5
2016-04-14T01:55:34.260Z,9.51
2016-04-14T01:56:33.918Z,9.55
2016-04-14T01:57:33.969Z,9.59
2016-04-14T01:58:33.986Z,9.47
2016-04-14T01:59:34.036Z,9.44
2016-04-14T02:00:34.055Z,9.37
2016-04-14T02:01:34.104Z,9.37
2016-04-14T02:02:34.138Z,9.39
2016-04-14T02:03:34.172Z,9.44
2016-04-14T02:04:34.205Z,9.44
2016-04-14T02:05:34.255Z,9.43
2016-04-14T02:06:34.273Z,9.43
2016-04-14T02:07:34.307Z,9.41
2016-04-14T02:08:34.341Z,9.37
2016-04-14T02:09:34.376Z,9.4
2016-04-14T02:10:34.675Z,9.36
2016-04-14T02:11:34.443Z,9.36
2016-04-14T02:12:34.476Z,9.37
2016-04-14T02:13:34.511Z,9.43
2016-04-14T02:14:34.561Z,9.26
2016-04-14T02:15:34.579Z,9.21
2016-04-14T02:16:34.613Z,9.14
2016-04-14T02:17:34.663Z,9.14
2016-04-14T02:18:34.681Z,9.23
2016-04-14T02:19:34.714Z,9.13
2016-04-14T02:20:34.749Z,9.11
2016-04-14T02:21:34.642Z,9.21
2016-04-14T02:22:34.817Z,9.21
2016-04-14T02:23:34.851Z,9.08
2016-04-14T02:24:34.900Z,9.13
2016-04-14T02:25:35.247Z,9.06
2016-04-14T02:26:34.968Z,9.14
2016-04-14T02:27:34.986Z,9.19
2016-04-14T02:28:35.019Z,9.23
2016-04-14T02:29:35.070Z,9.08
2016-04-14T02:30:35.119Z,9.19
2016-04-14T02:31:35.137Z,9.1
2016-04-14T02:32:35.188Z,9.11
2016-04-14T02:33:35.330Z,9.14
2016-04-14T02:34:35.240Z,9.11
2016-04-14T02:35:35.274Z,9.14
2016-04-14T02:36:35.307Z,9.08
2016-04-14T02:37:35.341Z,9.11
2016-04-14T02:38:35.360Z,9.13
2016-04-14T02:39:35.409Z,9.03
2016-04-14T02:40:35.709Z,8.99
2016-04-14T02:41:35.493Z,9.04
2016-04-14T02:42:35.495Z,9.14
2016-04-14T02:43:35.545Z,9.06
2016-04-14T02:44:35.595Z,9.1
2016-04-14T02:45:35.612Z,8.99
2016-04-14T02:46:35.631Z,8.97
2016-04-14T02:47:35.681Z,9.02
2016-04-14T02:48:35.714Z,9
2016-04-14T02:49:35.795Z,8.97
2016-04-14T02:50:35.783Z,8.89
2016-04-14T02:51:35.831Z,8.95
2016-04-14T02:52:35.851Z,9.04
2016-04-14T02:53:35.884Z,9.04
2016-04-14T02:54:35.919Z,9
2016-04-14T02:55:35.936Z,9.02
2016-04-14T02:56:35.970Z,9.08
2016-04-14T02:57:36.020Z,9.04
2016-04-14T02:58:36.054Z,9.02
2016-04-14T02:59:36.088Z,8.95
2016-04-14T03:00:36.122Z,8.92
2016-04-14T03:01:36.156Z,8.88
2016-04-14T03:02:36.205Z,8.88
2016-04-14T03:03:36.239Z,8.94
2016-04-14T03:04:36.257Z,8.89
2016-04-14T03:05:36.308Z,8.94
2016-04-14T03:06:36.326Z,8.91
2016-04-14T03:07:36.359Z,8.91
2016-04-14T03:08:36.410Z,8.94
2016-04-14T03:09:36.427Z,8.88
2016-04-14T03:10:36.540Z,8.84
2016-04-14T03:11:36.495Z,8.81
2016-04-14T03:12:36.545Z,8.81
2016-04-14T03:13:36.562Z,8.87
2016-04-14T03:14:36.598Z,8.81
2016-04-14T03:15:36.631Z,8.78
2016-04-14T03:16:36.664Z,8.76
2016-04-14T03:17:36.699Z,8.67
2016-04-14T03:18:36.748Z,8.76
2016-04-14T03:19:36.782Z,8.64
2016-04-14T03:20:36.801Z,8.76
2016-04-14T03:21:36.850Z,8.74
2016-04-14T03:22:36.884Z,8.78
2016-04-14T03:23:36.903Z,8.71
2016-04-14T03:24:36.936Z,8.74
2016-04-14T03:25:37.017Z,8.81
2016-04-14T03:26:37.020Z,8.81
2016-04-14T03:27:37.038Z,8.73
2016-04-14T03:28:37.073Z,8.67
2016-04-14T03:29:37.122Z,8.64
2016-04-14T03:30:37.141Z,8.6
2016-04-14T03:31:37.189Z,8.6
2016-04-14T03:32:37.224Z,8.6
2016-04-14T03:33:37.242Z,8.53
2016-04-14T03:34:37.291Z,8.55
2016-04-14T03:35:37.310Z,8.64
2016-04-14T03:36:37.359Z,8.64
2016-04-14T03:37:37.377Z,8.66
2016-04-14T03:38:37.427Z,8.64
2016-04-14T03:39:37.446Z,8.63
2016-04-14T03:40:37.526Z,8.53
2016-04-14T03:41:37.529Z,8.63
2016-04-14T03:42:37.548Z,8.66
2016-04-14T03:43:37.581Z,8.66
2016-04-14T03:44:37.631Z,8.73
2016-04-14T03:45:37.649Z,8.79
2016-04-14T03:46:37.683Z,8.78
2016-04-14T03:47:37.718Z,8.7
2016-04-14T03:48:37.610Z,8.56
2016-04-14T03:49:37.628Z,8.49
2016-04-14T03:50:37.820Z,8.56
2016-04-14T03:51:37.868Z,8.51
2016-04-14T03:52:37.887Z,8.55
2016-04-14T03:53:37.920Z,8.52
2016-04-14T03:54:37.955Z,8.55
2016-04-14T03:55:38.083Z,8.53
2016-04-14T03:56:38.070Z,8.52
2016-04-14T03:57:38.056Z,8.58
2016-04-14T03:58:38.090Z,8.56
2016-04-14T03:59:38.139Z,8.51
2016-04-14T04:00:38.158Z,8.44
2016-04-14T04:01:38.192Z,8.45
2016-04-14T04:02:38.226Z,8.46
2016-04-14T04:03:38.275Z,8.51
2016-04-14T04:04:38.294Z,8.61
2016-04-14T04:05:38.343Z,8.55
2016-04-14T04:06:38.362Z,8.66
2016-04-14T04:07:38.396Z,8.64
2016-04-14T04:08:38.445Z,8.66
2016-04-14T04:09:38.480Z,8.63
2016-04-14T04:10:38.560Z,8.61
2016-04-14T04:11:38.531Z,8.58
2016-04-14T04:12:38.582Z,8.63
2016-04-14T04:13:38.599Z,8.6
2016-04-14T04:14:38.634Z,8.6
2016-04-14T04:15:38.668Z,8.6
2016-04-14T04:16:38.701Z,8.56
2016-04-14T04:17:38.751Z,8.71
2016-04-14T04:18:38.785Z,8.67
2016-04-14T04:19:38.818Z,8.63
2016-04-14T04:20:38.853Z,8.64
2016-04-14T04:21:38.871Z,8.56
2016-04-14T04:22:38.921Z,8.56
2016-04-14T04:23:38.939Z,8.53
2016-04-14T04:24:38.973Z,8.46
2016-04-14T04:25:39.022Z,8.53
2016-04-14T04:26:39.041Z,8.36
2016-04-14T04:27:39.075Z,8.49
2016-04-14T04:28:39.109Z,8.52
2016-04-14T04:29:39.142Z,8.53
2016-04-14T04:30:39.191Z,8.64
2016-04-14T04:31:39.211Z,8.6
2016-04-14T04:32:39.244Z,8.52
2016-04-14T04:33:39.278Z,8.53
2016-04-14T04:34:39.313Z,8.6
2016-04-14T04:35:39.346Z,8.71
2016-04-14T04:36:39.380Z,8.58
2016-04-14T04:37:39.414Z,8.7
2016-04-14T04:38:39.448Z,8.55
2016-04-14T04:39:39.482Z,8.69
2016-04-14T04:40:39.515Z,8.55
2016-04-14T04:41:39.549Z,8.66
2016-04-14T04:42:39.584Z,8.64
2016-04-14T04:43:39.618Z,8.46
2016-04-14T04:44:39.651Z,8.55
2016-04-14T04:45:39.685Z,8.56
2016-04-14T04:46:39.720Z,8.49
2016-04-14T04:47:39.753Z,8.36
2016-04-14T04:48:39.771Z,8.37
2016-04-14T04:49:39.821Z,8.41
2016-04-14T04:50:39.855Z,8.44
2016-04-14T04:51:39.889Z,8.48
2016-04-14T04:52:39.923Z,8.49
2016-04-14T04:53:39.957Z,8.44
2016-04-14T04:54:39.991Z,8.52
2016-04-14T04:55:40.025Z,8.44
2016-04-14T04:56:40.059Z,8.31
2016-04-14T04:57:40.108Z,8.55
2016-04-14T04:58:40.127Z,8.53
2016-04-14T04:59:40.160Z,8.56
2016-04-14T05:00:40.178Z,8.58
2016-04-14T05:01:40.245Z,8.53
2016-04-14T05:02:40.247Z,8.53
2016-04-14T05:03:40.280Z,8.58
2016-04-14T05:04:40.331Z,8.56
2016-04-14T05:05:40.364Z,8.71
2016-04-14T05:06:40.399Z,8.58
2016-04-14T05:07:40.432Z,8.66
2016-04-14T05:08:40.466Z,8.7
2016-04-14T05:09:40.499Z,8.73
2016-04-14T05:10:40.535Z,8.82
2016-04-14T05:11:40.583Z,8.82
2016-04-14T05:12:40.586Z,8.95
2016-04-14T05:13:40.650Z,8.81
2016-04-14T05:14:40.760Z,8.89
2016-04-14T05:15:40.807Z,8.91
2016-04-14T05:16:40.869Z,8.97
2016-04-14T05:17:40.964Z,8.89
2016-04-14T05:18:41.017Z,8.89
2016-04-14T05:19:41.084Z,8.99
2016-04-14T05:20:41.133Z,8.89
2016-04-14T05:21:41.183Z,9
2016-04-14T05:22:41.234Z,9.13
2016-04-14T05:23:41.281Z,9.34
2016-04-14T05:24:41.320Z,9.55
2016-04-14T05:25:41.359Z,9.65
2016-04-14T05:26:41.399Z,9.58
2016-04-14T05:27:41.439Z,9.61
2016-04-14T05:28:41.478Z,9.69
2016-04-14T05:29:41.514Z,9.76
2016-04-14T05:30:41.550Z,9.73
2016-04-14T05:31:41.587Z,9.72
2016-04-14T05:32:41.623Z,9.8
2016-04-14T05:33:41.502Z,9.74
2016-04-14T05:34:41.693Z,9.59
2016-04-14T05:35:41.728Z,9.72
2016-04-14T05:36:41.763Z,9.83
2016-04-14T05:37:41.797Z,9.73
2016-04-14T05:38:41.832Z,9.87
2016-04-14T05:39:41.866Z,9.87
2016-04-14T05:40:41.900Z,9.8
2016-04-14T05:41:41.933Z,9.92
2016-04-14T05:42:41.968Z,9.99
2016-04-14T05:43:42.001Z,10.16
2016-04-14T05:44:42.035Z,10.19
2016-04-14T05:45:42.069Z,10.37
2016-04-14T05:46:42.104Z,10.31
2016-04-14T05:47:42.153Z,10.34
2016-04-14T05:48:42.187Z,10.41
2016-04-14T05:49:42.221Z,10.48
2016-04-14T05:50:42.240Z,10.37
2016-04-14T05:51:42.288Z,10.37
2016-04-14T05:52:42.338Z,10.44
2016-04-14T05:53:42.357Z,10.54
2016-04-14T05:54:42.390Z,10.48
2016-04-14T05:55:42.424Z,10.38
2016-04-14T05:56:42.458Z,10.44
2016-04-14T05:57:42.492Z,10.42
2016-04-14T05:58:42.526Z,10.54
2016-04-14T05:59:42.576Z,10.53
2016-04-14T06:00:42.595Z,10.53
2016-04-14T06:01:42.628Z,10.64
2016-04-14T06:02:42.678Z,10.74
2016-04-14T06:03:42.696Z,10.82
2016-04-14T06:04:42.730Z,10.84
2016-04-14T06:05:42.780Z,10.87
2016-04-14T06:06:42.813Z,10.81
2016-04-14T06:07:42.847Z,10.94
2016-04-14T06:08:42.880Z,10.96
2016-04-14T06:09:42.915Z,11.27
2016-04-14T06:10:42.964Z,11.25
2016-04-14T06:11:42.982Z,11.5
2016-04-14T06:12:43.032Z,11.88
2016-04-14T06:13:43.066Z,12
2016-04-14T06:14:43.099Z,12.5
2016-04-14T06:15:42.962Z,12.78
2016-04-14T06:16:43.168Z,13.08
2016-04-14T06:17:43.202Z,13.81
2016-04-14T06:18:43.235Z,14.37
2016-04-14T06:19:43.271Z,14.73
2016-04-14T06:20:43.304Z,15.07
2016-04-14T06:21:43.338Z,15.19
2016-04-14T06:22:43.371Z,15.19
2016-04-14T06:23:43.421Z,15.37
2016-04-14T06:24:43.440Z,15.77
2016-04-14T06:25:43.490Z,15.58
2016-04-14T06:26:43.524Z,15.4
2016-04-14T06:27:43.557Z,14.94
2016-04-14T06:28:43.592Z,15.37
2016-04-14T06:29:43.626Z,15.51
2016-04-14T06:30:43.675Z,15.43
2016-04-14T06:31:43.709Z,15.62
2016-04-14T06:32:43.758Z,15.61
2016-04-14T06:33:43.776Z,15.79
2016-04-14T06:34:43.685Z,16.41
2016-04-14T06:35:43.875Z,16.54
2016-04-14T06:36:43.925Z,16.58
2016-04-14T06:37:43.927Z,15.98
2016-04-14T06:38:43.961Z,15.95
2016-04-14T06:39:44.058Z,15.86
2016-04-14T06:40:44.061Z,16.09
2016-04-14T06:41:44.080Z,16
2016-04-14T06:42:44.129Z,15.44
2016-04-14T06:43:44.163Z,15.04
2016-04-14T06:44:44.196Z,14.73
2016-04-14T06:45:44.980Z,14.77
2016-04-14T06:46:44.265Z,14.81
2016-04-14T06:47:44.314Z,14.36
2016-04-14T06:48:44.348Z,14.26
2016-04-14T06:49:44.382Z,13.74
2016-04-14T06:50:44.431Z,13.35
2016-04-14T06:51:44.481Z,13.46
2016-04-14T06:52:44.359Z,13.33
2016-04-14T06:53:44.549Z,12.91
2016-04-14T06:54:44.583Z,12.91
2016-04-14T06:55:44.617Z,12.76
2016-04-14T06:56:44.542Z,12.76
2016-04-14T06:57:44.701Z,12.68
2016-04-14T06:58:44.735Z,12.57
2016-04-14T06:59:44.785Z,12.54
2016-04-14T07:00:44.818Z,12.45
2016-04-14T07:01:44.852Z,12.57
2016-04-14T07:02:44.887Z,12.27
2016-04-14T07:03:44.764Z,12.17
2016-04-14T07:04:44.971Z,12.21
2016-04-14T07:05:45.020Z,12.21
2016-04-14T07:06:45.158Z,12.4
2016-04-14T07:07:45.083Z,12.27
2016-04-14T07:08:45.158Z,12.45
2016-04-14T07:09:45.145Z,12.6
2016-04-14T07:10:45.199Z,12.64
2016-04-14T07:11:44.954Z,12.5
2016-04-14T07:12:44.941Z,12.7
2016-04-14T07:13:45.309Z,12.61
2016-04-14T07:14:45.360Z,12.78
2016-04-14T07:15:45.393Z,12.75
2016-04-14T07:16:45.422Z,12.64
2016-04-14T07:17:45.864Z,12.73
2016-04-14T07:18:45.491Z,12.79
2016-04-14T07:19:45.385Z,12.75
2016-04-14T07:20:45.575Z,12.75
2016-04-14T07:21:45.609Z,12.72
2016-04-14T07:22:45.643Z,12.78
2016-04-14T07:23:45.692Z,12.87
2016-04-14T07:24:45.726Z,12.95
2016-04-14T07:25:45.776Z,12.86
2016-04-14T07:26:45.793Z,12.68
2016-04-14T07:27:45.828Z,12.94
2016-04-14T07:28:45.877Z,13.35
2016-04-14T07:29:45.895Z,13.42
2016-04-14T07:30:45.945Z,13.47
2016-04-14T07:31:45.979Z,13.44
2016-04-14T07:32:46.013Z,13.22
2016-04-14T07:33:46.047Z,13.13
2016-04-14T07:34:46.097Z,13.2
2016-04-14T07:35:46.130Z,13.19
2016-04-14T07:36:46.180Z,12.94
2016-04-14T07:37:46.198Z,12.95
2016-04-14T07:38:46.248Z,13.04
2016-04-14T07:39:46.267Z,12.95
2016-04-14T07:40:46.317Z,13
2016-04-14T07:41:46.397Z,12.95
2016-04-14T07:42:46.384Z,13.09
2016-04-14T07:43:46.433Z,13.28
2016-04-14T07:44:46.467Z,13.22
2016-04-14T07:45:46.517Z,13.31
2016-04-14T07:46:46.551Z,13.35
2016-04-14T07:47:46.413Z,13.53
2016-04-14T07:48:46.634Z,13.53
2016-04-14T07:49:46.668Z,13.46
2016-04-14T07:50:46.687Z,13.47
2016-04-14T07:51:46.720Z,13.6
2016-04-14T07:52:46.771Z,13.71
2016-04-14T07:53:46.820Z,13.68
2016-04-14T07:54:46.854Z,13.72
2016-04-14T07:55:46.888Z,13.54
2016-04-14T07:56:46.984Z,13.77
2016-04-14T07:57:46.956Z,14.05
2016-04-14T07:58:46.989Z,14.03
2016-04-14T07:59:47.039Z,13.89
2016-04-14T08:00:46.931Z,13.87
2016-04-14T08:01:47.106Z,13.9
2016-04-14T08:02:47.140Z,13.97
2016-04-14T08:03:47.175Z,13.89
2016-04-14T08:04:47.225Z,13.99
2016-04-14T08:05:47.273Z,14.1
2016-04-14T08:06:47.323Z,14.3
2016-04-14T08:07:47.358Z,14.58
2016-04-14T08:08:47.388Z,14.54
2016-04-14T08:09:47.400Z,14.82
2016-04-14T08:10:47.450Z,14.96
2016-04-14T08:11:47.499Z,15.02
2016-04-14T08:12:47.517Z,15.33
2016-04-14T08:13:47.567Z,15.39
2016-04-14T08:14:47.601Z,15.57
2016-04-14T08:15:47.666Z,15.73
2016-04-14T08:16:47.669Z,15.7
2016-04-14T08:17:47.719Z,15.51
2016-04-14T08:18:47.753Z,15.54
2016-04-14T08:19:47.802Z,15.4
2016-04-14T08:20:47.836Z,15.57
2016-04-14T08:21:47.869Z,15.62
2016-04-14T08:22:47.919Z,15.52
2016-04-14T08:23:47.953Z,15.51
2016-04-14T08:24:48.002Z,15.58
2016-04-14T08:25:48.036Z,15.46
2016-04-14T08:26:48.101Z,15.25
2016-04-14T08:27:48.135Z,15.22
2016-04-14T08:28:48.169Z,15.21
2016-04-14T08:29:48.204Z,15.27
2016-04-14T08:30:48.285Z,15.4
2016-04-14T08:31:48.302Z,15.49
2016-04-14T08:32:48.337Z,15.68
2016-04-14T08:33:48.387Z,15.84
2016-04-14T08:34:48.420Z,15.83
2016-04-14T08:35:48.470Z,15.83
2016-04-14T08:36:48.511Z,16.47
2016-04-14T08:37:48.561Z,16.91
2016-04-14T08:38:48.579Z,17.31
2016-04-14T08:39:48.629Z,17.42
2016-04-14T08:40:48.679Z,17.98
2016-04-14T08:41:48.947Z,18.38
2016-04-14T08:42:48.762Z,18.93
2016-04-14T08:43:48.796Z,19.51
2016-04-14T08:44:48.845Z,19.84
2016-04-14T08:45:48.895Z,19.63
2016-04-14T08:46:48.928Z,19.79
2016-04-14T08:47:48.963Z,19.74
2016-04-14T08:48:48.997Z,19.82
2016-04-14T08:49:49.046Z,19.71
2016-04-14T08:50:49.408Z,19.66
2016-04-14T08:51:49.145Z,20
2016-04-14T08:52:49.163Z,19.85
2016-04-14T08:53:49.213Z,19.84
2016-04-14T08:54:49.247Z,20.11
2016-04-14T08:55:49.297Z,20.04
2016-04-14T08:56:49.393Z,19.59
2016-04-14T08:57:49.365Z,19.34
2016-04-14T08:58:49.429Z,18.99
2016-04-14T08:59:49.463Z,18.63
2016-04-14T09:00:49.498Z,18.73
2016-04-14T09:01:49.548Z,18.6
2016-04-14T09:02:49.597Z,18.23
2016-04-14T09:03:49.616Z,17.78
2016-04-14T09:04:49.681Z,18
2016-04-14T09:05:49.715Z,18.03
2016-04-14T09:06:49.749Z,17.89
2016-04-14T09:07:49.814Z,17.9
2016-04-14T09:08:49.848Z,17.42
2016-04-14T09:09:49.897Z,16.97
2016-04-14T09:10:49.931Z,17.12
2016-04-14T09:11:50.042Z,16.53
2016-04-14T09:12:50.045Z,16.41
2016-04-14T09:13:50.080Z,16.49
2016-04-14T09:14:50.113Z,16.43
2016-04-14T09:15:50.164Z,16.42
2016-04-14T09:16:50.197Z,16.46
2016-04-14T09:17:50.262Z,16.51
2016-04-14T09:18:50.297Z,16.47
2016-04-14T09:19:50.346Z,16.46
2016-04-14T09:20:50.380Z,16.32
2016-04-14T09:21:50.444Z,16.08
2016-04-14T09:22:50.463Z,16.26
2016-04-14T09:23:50.527Z,16
2016-04-14T09:24:50.546Z,16
2016-04-14T09:25:50.596Z,15.97
2016-04-14T09:26:50.661Z,15.97
2016-04-14T09:27:50.679Z,15.73
2016-04-14T09:28:50.730Z,15.7
2016-04-14T09:29:50.779Z,15.83
2016-04-14T09:30:50.813Z,15.86
2016-04-14T09:31:50.862Z,15.82
2016-04-14T09:32:50.896Z,16.02
2016-04-14T09:33:50.946Z,16.08
2016-04-14T09:34:50.979Z,16.13
2016-04-14T09:35:51.014Z,15.94
2016-04-14T09:36:51.063Z,15.86
2016-04-14T09:37:51.113Z,15.77
2016-04-14T09:38:51.148Z,15.62
2016-04-14T09:39:51.196Z,15.52
2016-04-14T09:40:51.231Z,15.52
2016-04-14T09:41:51.280Z,15.59
2016-04-14T09:42:51.298Z,15.59
2016-04-14T09:43:51.347Z,15.58
2016-04-14T09:44:51.381Z,15.35
2016-04-14T09:45:51.431Z,15.37
2016-04-14T09:46:51.480Z,15.19
2016-04-14T09:47:51.499Z,15.46
2016-04-14T09:48:51.564Z,15.44
2016-04-14T09:49:51.614Z,15.59
2016-04-14T09:50:51.632Z,15.77
2016-04-14T09:51:51.525Z,16
2016-04-14T09:52:51.716Z,16.05
2016-04-14T09:53:51.765Z,16.09
2016-04-14T09:54:51.783Z,15.86
2016-04-14T09:55:51.832Z,15.82
2016-04-14T09:56:51.913Z,15.83
2016-04-14T09:57:51.916Z,15.83
2016-04-14T09:58:51.951Z,15.92
2016-04-14T09:59:51.984Z,15.9
2016-04-14T10:00:52.034Z,15.88
2016-04-14T10:01:52.068Z,15.91
2016-04-14T10:02:52.102Z,15.77
2016-04-14T10:03:52.151Z,15.86
2016-04-14T10:04:52.201Z,15.92
2016-04-14T10:05:52.235Z,15.91
2016-04-14T10:06:52.268Z,15.73
2016-04-14T10:07:52.319Z,15.68
2016-04-14T10:08:52.337Z,15.67
2016-04-14T10:09:52.387Z,15.8
2016-04-14T10:10:52.421Z,15.82
2016-04-14T10:11:52.470Z,15.82
2016-04-14T10:12:52.520Z,15.91
2016-04-14T10:13:52.537Z,15.88
2016-04-14T10:14:52.587Z,16
2016-04-14T10:15:52.621Z,16.09
2016-04-14T10:16:52.670Z,16.08
2016-04-14T10:17:52.705Z,16.35
2016-04-14T10:18:52.739Z,16.29
2016-04-14T10:19:52.789Z,16.35
2016-04-14T10:20:52.838Z,16.41
2016-04-14T10:21:52.872Z,16.29
2016-04-14T10:22:52.921Z,16.24
2016-04-14T10:23:52.939Z,15.86
2016-04-14T10:24:52.989Z,15.8
2016-04-14T10:25:53.023Z,15.82
2016-04-14T10:26:53.072Z,15.86
2016-04-14T10:27:53.106Z,15.9
2016-04-14T10:28:53.156Z,15.95
2016-04-14T10:29:53.174Z,15.75
2016-04-14T10:30:53.224Z,15.57
2016-04-14T10:31:53.274Z,15.51
2016-04-14T10:32:53.307Z,15.67
2016-04-14T10:33:53.341Z,15.76
2016-04-14T10:34:53.407Z,15.92
2016-04-14T10:35:53.409Z,16
2016-04-14T10:36:53.460Z,16.09
2016-04-14T10:37:53.493Z,16.24
2016-04-14T10:38:53.543Z,16.57
2016-04-14T10:39:53.593Z,16.57
2016-04-14T10:40:53.626Z,16.53
2016-04-14T10:41:53.660Z,16.57
2016-04-14T10:42:53.709Z,16.65
2016-04-14T10:43:53.743Z,16.68
2016-04-14T10:44:53.777Z,16.65
2016-04-14T10:45:53.812Z,16.53
2016-04-14T10:46:53.861Z,16.43
2016-04-14T10:47:53.911Z,16.43
2016-04-14T10:48:53.929Z,16.58
2016-04-14T10:49:53.978Z,16.38
2016-04-14T10:50:54.028Z,16.54
2016-04-14T10:51:54.061Z,16.51
2016-04-14T10:52:54.080Z,16.56
2016-04-14T10:53:54.129Z,16.28
2016-04-14T10:54:54.179Z,16.12
2016-04-14T10:55:54.213Z,16.12
2016-04-14T10:56:54.263Z,16.29
2016-04-14T10:57:54.297Z,16.46
2016-04-14T10:58:54.330Z,16.58
2016-04-14T10:59:54.380Z,16.29
2016-04-14T11:00:54.413Z,16.41
2016-04-14T11:01:54.463Z,16.43
2016-04-14T11:02:54.498Z,16.5
2016-04-14T11:03:54.532Z,16.58
2016-04-14T11:04:54.582Z,16.53
2016-04-14T11:05:54.632Z,16.56
2016-04-14T11:06:54.649Z,16.46
2016-04-14T11:07:56.998Z,16.54
2016-04-14T11:08:54.732Z,16.78
2016-04-14T11:09:54.782Z,16.94
2016-04-14T11:10:54.816Z,17.16
2016-04-14T11:11:54.865Z,17.05
2016-04-14T11:12:54.900Z,16.96
2016-04-14T11:13:54.933Z,17.15
2016-04-14T11:14:54.968Z,17.2
2016-04-14T11:15:55.017Z,17.23
2016-04-14T11:16:55.067Z,17.16
2016-04-14T11:17:55.100Z,17.24
2016-04-14T11:18:55.025Z,17.19
2016-04-14T11:19:55.169Z,17.23
2016-04-14T11:20:55.202Z,17.02
2016-04-14T11:21:55.252Z,16.83
2016-04-14T11:22:55.285Z,16.71
2016-04-14T11:23:55.319Z,16.53
2016-04-14T11:24:55.369Z,16.66
2016-04-14T11:25:55.419Z,16.58
2016-04-14T11:26:55.471Z,16.49
2016-04-14T11:27:55.505Z,16.57
2016-04-14T11:28:55.538Z,16.51
2016-04-14T11:29:55.604Z,16.57
2016-04-14T11:30:55.607Z,16.56
2016-04-14T11:31:55.672Z,16.72
2016-04-14T11:32:55.691Z,16.91
2016-04-14T11:33:55.740Z,17.16
2016-04-14T11:34:55.773Z,17.29
2016-04-14T11:35:55.823Z,17.26
2016-04-14T11:36:55.856Z,17.16
2016-04-14T11:37:55.890Z,16.97
2016-04-14T11:38:55.939Z,16.94
2016-04-14T11:39:55.974Z,16.94
2016-04-14T11:40:56.570Z,16.87
2016-04-14T11:41:56.058Z,16.87
2016-04-14T11:42:56.108Z,16.76
2016-04-14T11:43:56.141Z,16.57
2016-04-14T11:44:56.175Z,16.66
2016-04-14T11:45:56.224Z,16.84
2016-04-14T11:46:56.258Z,16.87
2016-04-14T11:47:56.292Z,16.97
2016-04-14T11:48:56.341Z,16.72
2016-04-14T11:49:56.516Z,16.81
2016-04-14T11:50:56.415Z,16.96
2016-04-14T11:51:56.465Z,17.11
2016-04-14T11:52:56.513Z,17.16
2016-04-14T11:53:56.532Z,17.19
2016-04-14T11:54:56.582Z,17.02
2016-04-14T11:55:56.615Z,16.93
2016-04-14T11:56:56.665Z,16.78
2016-04-14T11:57:56.698Z,16.74
2016-04-14T11:58:56.748Z,16.58
2016-04-14T11:59:56.782Z,16.47
2016-04-14T12:00:56.832Z,16.47
2016-04-14T12:01:56.867Z,16.42
2016-04-14T12:02:56.915Z,16.57
2016-04-14T12:03:56.950Z,16.57
2016-04-14T12:04:56.983Z,16.51
2016-04-14T12:05:57.033Z,16.56
2016-04-14T12:06:57.067Z,16.56
2016-04-14T12:07:57.116Z,16.58
2016-04-14T12:08:57.166Z,16.58
2016-04-14T12:09:57.168Z,16.64
2016-04-14T12:10:57.391Z,16.74
2016-04-14T12:11:57.252Z,16.78
2016-04-14T12:12:57.317Z,16.83
2016-04-14T12:13:57.335Z,16.84
2016-04-14T12:14:57.369Z,16.76
2016-04-14T12:15:57.404Z,17.04
2016-04-14T12:16:57.453Z,17.22
2016-04-14T12:17:57.488Z,17.14
2016-04-14T12:18:57.537Z,17.14
2016-04-14T12:19:57.586Z,17.3
2016-04-14T12:20:57.604Z,17.39
2016-04-14T12:21:57.670Z,17.34
2016-04-14T12:22:57.688Z,17.31
2016-04-14T12:23:57.737Z,17.27
2016-04-14T12:24:57.771Z,17.41
2016-04-14T12:25:57.821Z,17.3
2016-04-14T12:26:57.854Z,17.15
2016-04-14T12:27:57.890Z,17.2
2016-04-14T12:28:57.923Z,17.16
2016-04-14T12:29:57.988Z,17.2
2016-04-14T12:30:58.022Z,17.16
2016-04-14T12:31:58.087Z,17.15
2016-04-14T12:32:58.106Z,17.09
2016-04-14T12:33:58.123Z,17.15
2016-04-14T12:34:58.189Z,17.14
2016-04-14T12:35:58.222Z,17.12
2016-04-14T12:36:58.272Z,17.05
2016-04-14T12:37:58.291Z,17.02
2016-04-14T12:38:58.341Z,17.24
2016-04-14T12:39:58.375Z,17.31
2016-04-14T12:40:58.424Z,17.38
2016-04-14T12:41:58.442Z,17.3
2016-04-14T12:42:58.491Z,17.3
2016-04-14T12:43:58.525Z,17.23
2016-04-14T12:44:58.591Z,17.26
2016-04-14T12:45:58.625Z,17.23
2016-04-14T12:46:58.675Z,17.39
2016-04-14T12:47:58.693Z,17.41
2016-04-14T12:48:58.743Z,17.41
2016-04-14T12:49:58.776Z,17.54
2016-04-14T12:50:58.810Z,17.42
2016-04-14T12:51:58.859Z,17.31
2016-04-14T12:52:58.893Z,17.2
2016-04-14T12:53:58.959Z,17.14
2016-04-14T12:54:58.993Z,17.09
2016-04-14T12:55:59.027Z,17.26
2016-04-14T12:56:59.061Z,17.31
2016-04-14T12:57:59.110Z,17.33
2016-04-14T12:58:59.145Z,17.31
2016-04-14T12:59:59.178Z,17.42
2016-04-14T13:00:59.228Z,17.34
2016-04-14T13:01:59.261Z,17.41
2016-04-14T13:02:59.311Z,17.48
2016-04-14T13:03:59.345Z,17.51
2016-04-14T13:04:59.378Z,17.34